Sierra Vista, AZ (85635)

6:15 AM MST on August 29, 2014 (GMT -0700)
Oakmont | Change Station
CLOSE
Current Station
Personal Weather Station
Location: Sierra Vista, AZ
Elevation: 4550 ft
Nearby Weather Stations

Elev 4550 ft 31.53 °N, 110.26 °W | Updated 14 seconds ago

Clear
Clear
65.7 °F
Feels Like 65.7 °F
N
3.1
Wind Variable Wind from SSW
Gusts 3.8 mph

Today
High -- | Low -- °F
--% Chance of Precip.
Yesterday
High -- | Low -- °F
Precip. -- in
5:55 AM 6:48 PM
Waxing Crescent, 14% visible
Pressure 29.90 in
Visibility 10.0 miles
Clouds Few 8500 ft
Dew Point 48 °F
Humidity 52%
Rainfall 0.00 in
Snow Depth Not available.
UV 0 out of 12
Pollen 6.40 out of 12
Air Quality Not available.
Flu Activity Not available.
METAR KFHU 291255Z 23009KT 10SM FEW085 21/07 A3009 RMK SLP124

More Conditions Fewer Conditions

Pressure 29.90 in
Visibility 10.0 miles
Clouds Few 8500 ft
Dew Point 48 °F
Humidity 52%
Rainfall 0.00 in
Snow Depth Not available.
UV 0 out of 12
Pollen 6.40 out of 12
Air Quality Not available.
Flu Activity Not available.
METAR KFHU 291255Z 23009KT 10SM FEW085 21/07 A3009 RMK SLP124

More Conditions Fewer Conditions

10-Day Weather Forecast

Almanac

Astronomy

Aug. 29, 2014 Rise Set
Actual Time 5:55 AM MST 6:48 PM MST
Civil Twilight 5:30 AM MST 7:13 PM MST
Nautical Twilight 5:00 AM MST 7:42 PM MST
Astronomical Twilight 4:30 AM MST 8:12 PM MST
Moon 9:30 AM MST 9:06 PM MST
Length of Visible Light 13h 43m
Length of Day
12h 53m
Tomorrow will be 1m 49s shorter.
Waxing Crescent, 14% of the Moon is Illuminated
Today
Waxing Crescent
Sep 2
First Quarter
Sep 8
Full
Sep 15
Last Quarter
Sep 24
New

Today's Extremes

State Highs State Lows

Community

WunderPhotos

Upload Photos

1,748,226 photos uploaded!

Nearby

Snow Depth

Station Depth Elevation
Wildcat 0 in 7850 ft
Beaver Head 24 in 7990 ft
Workman Creek 2 in 6900 ft
Coronado Trail 3 in 8400 ft
Maverick Fork 0 in 9200 ft

Earthquake Activity

City Distance Mag. Time & Date
No recent earthquake activity has been reported nearby.
Minimum magnitude displayed is 2.5.

Coastal Water Temperatures

Place Temperature
No Stations Reporting

Nearby Weather Stations